createdAt,value
2019-04-20T00:01:19.904Z,3.75
2019-04-20T00:03:47.370Z,4.40
2019-04-20T00:06:19.509Z,3.83
2019-04-20T00:08:55.491Z,4.40
2019-04-20T00:11:29.566Z,4.30
2019-04-20T00:14:02.561Z,3.83
2019-04-20T00:16:25.178Z,3.72
2019-04-20T00:18:58.353Z,4.22
2019-04-20T00:21:46.415Z,4.65
2019-04-20T00:24:24.807Z,4.25
2019-04-20T00:29:40.667Z,4.30
2019-04-20T00:32:06.589Z,4.47
2019-04-20T00:34:33.145Z,4.03
2019-04-20T00:37:00.276Z,4.15
2019-04-20T00:39:31.872Z,4.17
2019-04-20T00:42:06.674Z,3.87
2019-04-20T00:44:37.711Z,4.12
2019-04-20T00:47:16.008Z,3.87
2019-04-20T00:49:48.309Z,4.15
2019-04-20T00:52:32.899Z,4.10
2019-04-20T00:54:39.380Z,4.35
2019-04-20T00:57:21.419Z,3.67
2019-04-20T01:00:03.388Z,4.50
2019-04-20T01:02:25.707Z,4.15
2019-04-20T01:05:04.015Z,4.35
2019-04-20T01:07:39.517Z,4.70
2019-04-20T01:10:05.378Z,4.83
2019-04-20T01:12:38.733Z,5.12
2019-04-20T01:15:11.809Z,5.10
2019-04-20T01:17:41.685Z,4.50
2019-04-20T01:20:11.246Z,5.25
2019-04-20T01:22:51.009Z,4.75
2019-04-20T01:25:20.585Z,4.15
2019-04-20T01:28:04.482Z,4.85
2019-04-20T01:30:25.344Z,4.05
2019-04-20T01:33:02.533Z,4.08
2019-04-20T01:35:38.286Z,4.35
2019-04-20T01:38:16.294Z,4.05
2019-04-20T01:40:23.229Z,4.05
2019-04-20T01:42:55.351Z,4.12
2019-04-20T01:45:29.390Z,4.28
2019-04-20T01:47:59.538Z,4.70
2019-04-20T01:50:33.279Z,4.12
2019-04-20T01:53:11.523Z,4.37
2019-04-20T01:55:45.500Z,3.95
2019-04-20T01:58:35.182Z,4.83
2019-04-20T02:01:17.769Z,4.45
2019-04-20T02:03:50.247Z,4.45
2019-04-20T02:06:21.656Z,4.75
2019-04-20T02:08:58.355Z,4.30
2019-04-20T02:11:28.849Z,4.53
2019-04-20T02:13:58.182Z,5.12
2019-04-20T02:16:34.985Z,4.17
2019-04-20T02:19:13.519Z,4.40
2019-04-20T02:21:48.867Z,4.53
2019-04-20T02:24:04.008Z,4.67
2019-04-20T02:26:32.248Z,4.65
2019-04-20T02:29:29.134Z,4.70
2019-04-20T02:37:49.455Z,5.10
2019-04-20T02:40:15.725Z,4.60
2019-04-20T02:42:50.970Z,4.78
2019-04-20T02:45:24.136Z,4.90
2019-04-20T02:47:47.801Z,5.58
2019-04-20T02:50:38.305Z,5.95
2019-04-20T03:00:20.547Z,5.55
2019-04-20T03:02:38.315Z,5.17
2019-04-20T03:05:08.268Z,4.95
2019-04-20T03:07:49.386Z,5.35
2019-04-20T03:10:19.249Z,5.25
2019-04-20T03:12:50.594Z,4.60
2019-04-20T03:15:24.023Z,4.78
2019-04-20T03:17:51.203Z,5.53
2019-04-20T03:20:29.888Z,5.17
2019-04-20T03:23:26.015Z,5.45
2019-04-20T03:25:53.406Z,5.12
2019-04-20T03:28:19.474Z,5.15
2019-04-20T03:31:33.738Z,5.42
2019-04-20T03:34:03.394Z,4.87
2019-04-20T03:36:18.148Z,5.15
2019-04-20T03:38:36.327Z,5.25
2019-04-20T03:41:05.154Z,5.25
2019-04-20T03:43:22.616Z,5.17
2019-04-20T03:45:59.470Z,5.25
2019-04-20T03:48:41.412Z,5.37
2019-04-20T03:51:14.892Z,4.72
2019-04-20T03:54:07.585Z,5.62
2019-04-20T03:56:47.992Z,5.17
2019-04-20T03:59:25.416Z,5.53
2019-04-20T04:05:00.522Z,5.10
2019-04-20T04:07:22.836Z,5.60
2019-04-20T04:10:04.593Z,5.67
2019-04-20T04:13:01.121Z,5.53
2019-04-20T04:15:31.698Z,5.75
2019-04-20T04:18:07.544Z,5.03
2019-04-20T04:20:43.714Z,5.47
2019-04-20T04:23:24.948Z,6.12
2019-04-20T04:25:55.694Z,5.80
2019-04-20T04:28:27.663Z,5.85
2019-04-20T04:31:06.357Z,5.65
2019-04-20T04:36:03.134Z,5.58
2019-04-20T04:38:39.584Z,4.78
2019-04-20T04:41:17.090Z,5.05
2019-04-20T04:43:41.344Z,5.60
2019-04-20T04:45:51.758Z,5.75
2019-04-20T04:48:28.339Z,5.53
2019-04-20T04:50:59.855Z,5.90
2019-04-20T04:53:38.876Z,5.75
2019-04-20T04:56:02.825Z,6.20
2019-04-20T04:58:27.795Z,5.80
2019-04-20T05:01:07.724Z,5.53
2019-04-20T05:03:45.189Z,5.50
2019-04-20T05:06:29.089Z,5.70
2019-04-20T05:08:49.939Z,5.90
2019-04-20T05:11:15.316Z,5.50
2019-04-20T05:13:54.182Z,7.37
2019-04-20T05:16:38.261Z,5.42
2019-04-20T05:19:13.488Z,5.25
2019-04-20T05:24:59.425Z,6.03
2019-04-20T05:27:46.660Z,5.45
2019-04-20T05:30:01.305Z,5.30
2019-04-20T05:32:44.053Z,5.47
2019-04-20T05:35:26.386Z,5.45
2019-04-20T05:38:01.162Z,5.12
2019-04-20T05:40:30.234Z,5.75
2019-04-20T05:43:15.512Z,5.65
2019-04-20T05:45:42.823Z,6.35
2019-04-20T05:48:19.664Z,5.87
2019-04-20T05:50:49.401Z,5.87
2019-04-20T05:53:31.042Z,5.83
2019-04-20T05:55:50.289Z,5.40
2019-04-20T05:58:26.117Z,5.90
2019-04-20T06:01:01.668Z,5.87
2019-04-20T06:03:26.115Z,5.80
2019-04-20T06:06:03.462Z,6.08
2019-04-20T06:08:53.940Z,5.50
2019-04-20T06:11:01.994Z,5.50
2019-04-20T06:13:32.606Z,6.20
2019-04-20T06:16:18.668Z,5.97
2019-04-20T06:18:48.716Z,5.65
2019-04-20T06:21:57.616Z,5.35
2019-04-20T06:24:37.533Z,6.10
2019-04-20T06:26:59.666Z,5.50
2019-04-20T06:29:23.556Z,5.67
2019-04-20T06:32:08.651Z,5.62
2019-04-20T06:37:03.658Z,6.53
2019-04-20T06:39:41.468Z,5.65
2019-04-20T06:44:57.328Z,6.75
2019-04-20T06:47:19.919Z,7.15
2019-04-20T06:49:38.407Z,6.40
2019-04-20T06:55:04.454Z,7.08
2019-04-20T06:57:40.362Z,7.15
2019-04-20T07:00:14.157Z,6.28
2019-04-20T07:02:46.414Z,7.37
2019-04-20T07:05:11.868Z,6.72
2019-04-20T07:08:00.730Z,6.90
2019-04-20T07:10:33.918Z,7.03
2019-04-20T07:12:41.938Z,6.53
2019-04-20T07:15:17.748Z,6.85
2019-04-20T07:20:53.563Z,7.40
2019-04-20T07:23:21.373Z,7.20
2019-04-20T07:25:52.854Z,6.65
2019-04-20T07:28:19.703Z,7.03
2019-04-20T07:30:53.942Z,6.60
2019-04-20T07:33:24.548Z,7.08
2019-04-20T07:35:50.893Z,6.50
2019-04-20T07:38:30.883Z,7.65
2019-04-20T07:40:56.134Z,7.70
2019-04-20T07:43:28.083Z,7.35
2019-04-20T07:46:03.021Z,6.55
2019-04-20T07:48:31.073Z,7.78
2019-04-20T07:50:54.386Z,6.90
2019-04-20T07:53:29.321Z,6.55
2019-04-20T07:56:04.646Z,6.60
2019-04-20T07:58:28.339Z,6.95
2019-04-20T08:01:24.248Z,7.33
2019-04-20T08:03:55.706Z,7.10
2019-04-20T08:06:29.821Z,6.70
2019-04-20T08:09:08.437Z,6.78
2019-04-20T08:11:50.777Z,6.40
2019-04-20T08:14:22.662Z,7.17
2019-04-20T08:16:58.444Z,6.92
2019-04-20T08:19:17.402Z,6.60
2019-04-20T08:22:08.339Z,6.53
2019-04-20T08:24:17.627Z,7.12
2019-04-20T08:26:41.645Z,6.50
2019-04-20T08:29:42.385Z,6.75
2019-04-20T08:32:51.818Z,6.12
2019-04-20T08:35:31.933Z,6.33
2019-04-20T08:38:14.890Z,6.17
2019-04-20T08:40:34.491Z,6.70
2019-04-20T08:43:13.071Z,6.45
2019-04-20T08:45:45.255Z,7.35
2019-04-20T08:48:14.166Z,6.25
2019-04-20T08:50:45.119Z,6.80
2019-04-20T08:53:21.968Z,6.58
2019-04-20T08:55:43.833Z,6.72
2019-04-20T08:57:58.195Z,6.50
2019-04-20T09:00:33.369Z,6.55
2019-04-20T09:03:09.433Z,6.15
2019-04-20T09:05:42.496Z,6.10
2019-04-20T09:08:14.614Z,6.70
2019-04-20T09:10:49.531Z,5.62
2019-04-20T09:13:18.626Z,5.92
2019-04-20T09:15:38.434Z,6.08
2019-04-20T09:18:22.790Z,5.37
2019-04-20T09:20:53.794Z,5.50
2019-04-20T09:23:35.390Z,5.65
2019-04-20T09:26:10.202Z,5.67
2019-04-20T09:28:38.273Z,5.87
2019-04-20T09:31:35.898Z,5.78
2019-04-20T09:34:14.334Z,5.55
2019-04-20T09:36:49.829Z,5.70
2019-04-20T09:39:35.178Z,5.62
2019-04-20T09:42:05.202Z,6.03
2019-04-20T09:44:37.534Z,5.47
2019-04-20T09:47:07.354Z,5.95
2019-04-20T09:49:49.262Z,5.42
2019-04-20T09:52:22.996Z,6.03
2019-04-20T09:54:59.328Z,5.67
2019-04-20T09:57:33.297Z,5.72
2019-04-20T10:00:01.712Z,5.72
2019-04-20T10:02:24.177Z,5.40
2019-04-20T10:04:49.446Z,5.40
2019-04-20T10:07:23.601Z,5.35
2019-04-20T10:09:52.056Z,5.25
2019-04-20T10:12:22.031Z,5.00
2019-04-20T10:14:53.094Z,5.00
2019-04-20T10:17:23.565Z,5.72
2019-04-20T10:19:53.704Z,5.35
2019-04-20T10:22:24.585Z,5.80
2019-04-20T10:24:55.591Z,5.33
2019-04-20T10:27:26.492Z,6.03
2019-04-20T10:29:57.805Z,5.80
2019-04-20T10:32:34.246Z,5.20
2019-04-20T10:34:59.401Z,5.65
2019-04-20T10:37:33.656Z,5.50
2019-04-20T10:40:04.807Z,5.30
2019-04-20T10:42:36.352Z,6.08
2019-04-20T10:45:08.670Z,5.22
2019-04-20T10:47:39.040Z,5.90
2019-04-20T10:50:09.315Z,5.40
2019-04-20T10:52:41.534Z,5.45
2019-04-20T10:55:12.488Z,5.90
2019-04-20T10:57:43.697Z,5.85
2019-04-20T11:00:15.612Z,5.75
2019-04-20T11:02:47.445Z,5.12
2019-04-20T11:05:17.015Z,5.90
2019-04-20T11:07:46.916Z,5.80
2019-04-20T11:10:22.812Z,5.75
2019-04-20T11:12:48.467Z,5.42
2019-04-20T11:15:18.668Z,5.42
2019-04-20T11:17:49.105Z,5.58
2019-04-20T11:20:19.299Z,5.22
2019-04-20T11:22:50.437Z,5.50
2019-04-20T11:25:20.511Z,5.50
2019-04-20T11:27:50.366Z,5.37
2019-04-20T11:30:20.425Z,5.45
2019-04-20T11:32:50.300Z,5.53
2019-04-20T11:35:28.111Z,4.67
2019-04-20T11:37:51.618Z,5.55
2019-04-20T11:40:21.510Z,5.05
2019-04-20T11:42:51.378Z,5.17
2019-04-20T11:45:22.501Z,5.80
2019-04-20T11:47:53.751Z,4.92
2019-04-20T11:50:25.202Z,5.20
2019-04-20T11:52:55.362Z,4.87
2019-04-20T11:55:26.538Z,5.08
2019-04-20T11:57:56.510Z,5.17
2019-04-20T12:00:46.974Z,5.42
2019-04-20T12:03:33.297Z,5.05
2019-04-20T12:06:02.822Z,5.22
2019-04-20T12:08:31.213Z,5.37
2019-04-20T12:11:18.853Z,4.55
2019-04-20T12:13:34.541Z,5.22
2019-04-20T12:16:05.676Z,4.62
2019-04-20T12:18:35.906Z,5.20
2019-04-20T12:21:05.888Z,5.62
2019-04-20T12:23:36.193Z,4.55
2019-04-20T12:26:06.792Z,5.22
2019-04-20T12:28:37.949Z,4.92
2019-04-20T12:31:12.940Z,4.90
2019-04-20T12:33:40.154Z,5.30
2019-04-20T12:36:10.424Z,5.47
2019-04-20T12:38:41.325Z,6.08
2019-04-20T12:41:12.723Z,6.15
2019-04-20T12:43:43.599Z,5.53
2019-04-20T12:46:16.334Z,6.00
2019-04-20T12:48:44.915Z,5.90
2019-04-20T12:51:15.568Z,5.60
2019-04-20T12:53:46.572Z,6.62
2019-04-20T12:56:16.944Z,5.95
2019-04-20T12:58:47.372Z,5.97
2019-04-20T13:01:20.236Z,5.92
2019-04-20T13:03:49.858Z,5.78
2019-04-20T13:06:21.774Z,5.87
2019-04-20T13:08:55.583Z,5.80
2019-04-20T13:11:34.650Z,5.87
2019-04-20T13:14:44.409Z,6.90
2019-04-20T13:17:14.560Z,5.90
2019-04-20T13:19:45.058Z,6.00
2019-04-20T13:22:15.065Z,6.12
2019-04-20T13:24:45.223Z,5.53
2019-04-20T13:27:16.472Z,6.22
2019-04-20T13:29:49.094Z,5.67
2019-04-20T13:32:18.171Z,5.90
2019-04-20T13:34:47.878Z,6.15
2019-04-20T13:37:18.040Z,6.22
2019-04-20T13:39:49.013Z,6.53
2019-04-20T13:42:23.289Z,6.08
2019-04-20T13:44:50.789Z,5.60
2019-04-20T13:47:20.991Z,4.92
2019-04-20T13:49:51.358Z,6.30
2019-04-20T13:52:22.721Z,5.65
2019-04-20T13:54:53.912Z,5.03
2019-04-20T13:57:30.062Z,4.95
2019-04-20T14:00:02.119Z,4.87
2019-04-20T14:02:42.652Z,4.90
2019-04-20T14:05:12.882Z,5.78
2019-04-20T14:07:43.199Z,5.42
2019-04-20T14:10:13.439Z,5.03
2019-04-20T14:12:53.405Z,5.12
2019-04-20T14:15:15.248Z,5.50
2019-04-20T14:17:46.806Z,4.90
2019-04-20T14:20:20.186Z,4.33
2019-04-20T14:22:49.167Z,4.65
2019-04-20T14:25:19.090Z,4.55
2019-04-20T14:27:48.800Z,5.30
2019-04-20T14:30:19.291Z,4.30
2019-04-20T14:32:50.426Z,4.42
2019-04-20T14:35:20.805Z,4.37
2019-04-20T14:37:52.084Z,4.90
2019-04-20T14:40:22.182Z,4.85
2019-04-20T14:42:53.733Z,3.90
2019-04-20T14:45:24.671Z,4.03
2019-04-20T14:47:54.637Z,4.67
2019-04-20T14:50:25.527Z,4.37
2019-04-20T14:52:55.617Z,5.37
2019-04-20T14:55:25.857Z,4.83
2019-04-20T14:57:57.446Z,4.53
2019-04-20T15:00:53.312Z,3.80
2019-04-20T15:03:37.332Z,4.42
2019-04-20T15:06:07.439Z,4.70
2019-04-20T15:08:38.627Z,4.28
2019-04-20T15:11:09.237Z,4.28
2019-04-20T15:13:40.577Z,3.87
2019-04-20T15:16:10.899Z,4.37
2019-04-20T15:18:45.566Z,4.33
2019-04-20T15:21:17.627Z,4.53
2019-04-20T15:23:47.900Z,5.28
2019-04-20T15:26:18.433Z,4.45
2019-04-20T15:28:48.452Z,4.97
2019-04-20T15:31:18.491Z,4.20
2019-04-20T15:33:48.855Z,4.87
2019-04-20T15:36:20.049Z,4.85
2019-04-20T15:38:51.263Z,4.87
2019-04-20T15:41:21.174Z,4.03
2019-04-20T15:43:51.214Z,4.30
2019-04-20T15:46:21.346Z,4.25
2019-04-20T15:48:52.371Z,4.22
2019-04-20T15:51:23.719Z,4.03
2019-04-20T15:53:53.712Z,4.20
2019-04-20T15:56:24.594Z,4.47
2019-04-20T15:58:54.636Z,4.28
2019-04-20T16:01:28.329Z,4.28
2019-04-20T16:04:05.704Z,6.15
2019-04-20T16:06:36.973Z,4.85
2019-04-20T16:09:08.361Z,8.83
2019-04-20T16:11:39.432Z,5.37
2019-04-20T16:14:09.200Z,4.20
2019-04-20T16:16:40.291Z,3.30
2019-04-20T16:19:19.556Z,4.12
2019-04-20T16:21:41.750Z,4.42
2019-04-20T16:24:15.140Z,3.90
2019-04-20T16:26:49.622Z,3.98
2019-04-20T16:29:19.806Z,4.08
2019-04-20T16:31:50.782Z,3.60
2019-04-20T16:34:21.426Z,4.03
2019-04-20T16:36:53.434Z,4.00
2019-04-20T16:39:24.668Z,3.85
2019-04-20T16:41:54.568Z,4.35
2019-04-20T16:44:25.123Z,3.75
2019-04-20T16:46:56.284Z,3.37
2019-04-20T16:49:26.119Z,3.42
2019-04-20T16:51:57.104Z,4.25
2019-04-20T16:54:27.992Z,3.80
2019-04-20T16:56:57.876Z,3.58
2019-04-20T16:59:28.247Z,3.90
2019-04-20T17:01:58.316Z,4.10
2019-04-20T17:04:28.920Z,3.27
2019-04-20T17:07:20.687Z,3.70
2019-04-20T17:09:51.838Z,3.20
2019-04-20T17:12:23.909Z,3.80
2019-04-20T17:14:55.817Z,3.83
2019-04-20T17:17:25.820Z,3.47
2019-04-20T17:19:55.701Z,3.60
2019-04-20T17:22:25.695Z,3.27
2019-04-20T17:24:55.703Z,3.85
2019-04-20T17:27:48.900Z,3.87
2019-04-20T17:30:59.225Z,3.47
2019-04-20T17:33:54.633Z,4.25
2019-04-20T17:36:20.865Z,4.22
2019-04-20T17:38:52.009Z,4.40
2019-04-20T17:41:37.167Z,4.25
2019-04-20T17:44:05.887Z,4.00
2019-04-20T17:46:34.439Z,3.58
2019-04-20T17:49:12.114Z,3.98
2019-04-20T17:51:47.340Z,3.80
2019-04-20T17:54:22.152Z,3.37
2019-04-20T17:56:52.549Z,3.72
2019-04-20T17:59:22.484Z,4.17
2019-04-20T18:02:25.005Z,4.00
2019-04-20T18:05:22.026Z,3.77
2019-04-20T18:07:48.287Z,3.62
2019-04-20T18:10:18.974Z,4.03
2019-04-20T18:12:37.499Z,5.05
2019-04-20T18:15:21.097Z,3.50
2019-04-20T18:18:23.894Z,6.70
2019-04-20T18:20:52.664Z,3.45
2019-04-20T18:23:29.331Z,3.50
2019-04-20T18:26:10.951Z,2.90
2019-04-20T18:28:39.994Z,3.50
2019-04-20T18:31:08.598Z,3.05
2019-04-20T18:33:38.708Z,3.30
2019-04-20T18:36:13.292Z,3.60
2019-04-20T18:38:48.056Z,3.70
2019-04-20T18:41:23.073Z,2.90
2019-04-20T18:43:48.634Z,2.90
2019-04-20T18:46:34.684Z,3.10
2019-04-20T18:49:06.937Z,3.25
2019-04-20T18:51:17.708Z,3.62
2019-04-20T18:53:50.063Z,3.60
2019-04-20T18:56:25.572Z,3.45
2019-04-20T18:58:51.244Z,3.33
2019-04-20T19:01:29.567Z,3.35
2019-04-20T19:03:54.006Z,3.42
2019-04-20T19:06:23.873Z,3.40
2019-04-20T19:08:55.325Z,2.85
2019-04-20T19:11:27.054Z,3.33
2019-04-20T19:14:33.607Z,3.02
2019-04-20T19:17:09.067Z,3.05
2019-04-20T19:19:47.724Z,3.20
2019-04-20T19:22:14.307Z,3.50
2019-04-20T19:24:47.900Z,4.08
2019-04-20T19:27:19.829Z,4.33
2019-04-20T19:29:56.382Z,4.67
2019-04-20T19:32:35.851Z,4.90
2019-04-20T19:35:01.341Z,4.33
2019-04-20T19:37:33.101Z,3.77
2019-04-20T19:40:08.157Z,3.95
2019-04-20T19:42:42.305Z,4.22
2019-04-20T19:45:26.277Z,4.25
2019-04-20T19:47:48.079Z,4.70
2019-04-20T19:50:44.136Z,5.05
2019-04-20T19:53:03.634Z,6.00
2019-04-20T19:55:26.037Z,6.00
2019-04-20T19:57:56.470Z,6.08
2019-04-20T20:00:14.611Z,7.65
2019-04-20T20:02:45.739Z,6.87
2019-04-20T20:05:17.801Z,6.75
2019-04-20T20:07:52.401Z,6.58
2019-04-20T20:10:20.883Z,5.53
2019-04-20T20:12:55.987Z,6.30
2019-04-20T20:15:27.962Z,6.22
2019-04-20T20:18:12.398Z,5.30
2019-04-20T20:20:47.317Z,4.85
2019-04-20T20:22:58.954Z,4.60
2019-04-20T20:25:32.990Z,4.45
2019-04-20T20:28:14.548Z,5.62
2019-04-20T20:30:48.186Z,7.55
2019-04-20T20:33:23.817Z,6.10
2019-04-20T20:35:46.295Z,6.87
2019-04-20T20:38:16.632Z,6.03
2019-04-20T20:40:52.482Z,6.15
2019-04-20T20:43:20.653Z,6.30
2019-04-20T20:45:55.422Z,7.00
2019-04-20T20:48:29.663Z,5.97
2019-04-20T20:51:07.709Z,6.35
2019-04-20T20:53:37.999Z,5.83
2019-04-20T20:56:01.930Z,6.40
2019-04-20T20:58:37.422Z,8.95
2019-04-20T21:01:04.411Z,7.35
2019-04-20T21:03:32.279Z,7.42
2019-04-20T21:05:58.145Z,9.58
2019-04-20T21:08:29.238Z,7.03
2019-04-20T21:11:00.157Z,7.28
2019-04-20T21:13:35.514Z,9.55
2019-04-20T21:16:09.993Z,9.73
2019-04-20T21:18:52.579Z,8.40
2019-04-20T21:21:19.254Z,9.85
2019-04-20T21:23:45.490Z,10.85
2019-04-20T21:26:12.764Z,11.73
2019-04-20T21:28:40.188Z,9.05
2019-04-20T21:31:14.680Z,6.22
2019-04-20T21:33:42.895Z,5.30
2019-04-20T21:36:18.079Z,6.33
2019-04-20T21:38:45.171Z,6.20
2019-04-20T21:41:18.602Z,6.17
2019-04-20T21:43:48.183Z,5.62
2019-04-20T21:46:18.755Z,6.22
2019-04-20T21:49:04.312Z,6.55
2019-04-20T21:51:32.099Z,6.65
2019-04-20T21:53:56.112Z,7.15
2019-04-20T21:56:24.084Z,6.55
2019-04-20T21:59:00.751Z,6.50
2019-04-20T22:01:34.613Z,7.22
2019-04-20T22:03:58.572Z,6.65
2019-04-20T22:06:29.684Z,6.50
2019-04-20T22:09:01.043Z,6.17
2019-04-20T22:11:33.665Z,6.65
2019-04-20T22:14:12.903Z,6.03
2019-04-20T22:16:41.702Z,6.05
2019-04-20T22:19:22.745Z,6.40
2019-04-20T22:21:53.360Z,5.42
2019-04-20T22:24:28.690Z,5.87
2019-04-20T22:26:54.863Z,5.78
2019-04-20T22:29:14.303Z,5.62
2019-04-20T22:31:51.803Z,5.72
2019-04-20T22:34:20.815Z,6.20
2019-04-20T22:36:48.771Z,5.90
2019-04-20T22:39:31.362Z,6.30
2019-04-20T22:42:01.175Z,5.97
2019-04-20T22:44:28.698Z,6.03
2019-04-20T22:46:58.521Z,6.85
2019-04-20T22:49:44.110Z,6.80
2019-04-20T22:52:13.197Z,6.80
2019-04-20T22:54:47.811Z,6.85
2019-04-20T22:57:13.013Z,6.92
2019-04-20T22:59:44.673Z,6.50
2019-04-20T23:02:08.465Z,6.72
2019-04-20T23:04:38.941Z,7.00
2019-04-20T23:07:10.747Z,6.53
2019-04-20T23:09:48.653Z,6.22
2019-04-20T23:12:17.545Z,6.87
2019-04-20T23:14:44.843Z,6.25
2019-04-20T23:17:18.364Z,6.97
2019-04-20T23:19:51.817Z,7.08
2019-04-20T23:22:19.065Z,7.75
2019-04-20T23:24:49.236Z,7.35
2019-04-20T23:27:25.556Z,6.58
2019-04-20T23:29:51.185Z,7.80
2019-04-20T23:32:22.487Z,7.25
2019-04-20T23:34:57.683Z,7.28
2019-04-20T23:37:29.869Z,7.12
2019-04-20T23:39:56.510Z,7.00
2019-04-20T23:42:37.638Z,7.80
2019-04-20T23:45:28.282Z,6.95
2019-04-20T23:47:58.874Z,6.80
2019-04-20T23:50:58.014Z,6.60
2019-04-20T23:53:13.979Z,8.03
2019-04-20T23:55:31.812Z,6.45
2019-04-20T23:58:06.799Z,7.28
